Time;durP1;ratioP1;P1;durP2;ratioP2;P2;SDS_P1;SDS_P2;PMS_P1;PMS_P2;Temp;Humidity;BMP_temperature;BMP_pressure;BME280_temperature;BME280_humidity;BME280_pressure;Samples;Min_cycle;Max_cycle;Signal;HPM_P1;HPM_P2
2023/04/27 00:01:41;;;;;;;9.93;4.07;;;4.80;99.90;;;;;;10436558;28;20221;-84
2023/04/27 00:07:22;;;;;;;9.80;3.47;;;4.80;99.90;;;;;;10458007;28;20236;-84
2023/04/27 00:12:44;;;;;;;6.83;3.50;;;4.80;99.90;;;;;;10414177;28;20504;-82
2023/04/27 00:18:06;;;;;;;6.37;3.20;;;4.80;99.90;;;;;;10408810;28;20202;-83
2023/04/27 00:23:27;;;;;;;9.53;4.30;;;4.80;99.90;;;;;;10438768;28;20246;-84
2023/04/27 00:28:48;;;;;;;7.63;3.73;;;4.70;99.90;;;;;;10422799;28;20224;-83
2023/04/27 00:34:10;;;;;;;8.90;3.47;;;4.70;99.90;;;;;;10413614;28;20532;-83
2023/04/27 00:39:34;;;;;;;6.63;3.83;;;4.60;99.90;;;;;;10430283;28;20202;-82
2023/04/27 00:44:57;;;;;;;6.20;3.50;;;4.50;99.90;;;;;;10447398;28;20220;-83
2023/04/27 00:50:30;;;;;;;8.50;4.03;;;4.50;99.90;;;;;;10408591;28;20222;-83
2023/04/27 00:55:51;;;;;;;11.60;4.30;;;4.50;99.90;;;;;;10445829;28;20280;-83
2023/04/27 01:01:13;;;;;;;7.83;3.07;;;4.50;99.90;;;;;;10404810;28;20192;-83
2023/04/27 01:06:34;;;;;;;4.63;2.87;;;4.50;99.90;;;;;;10436364;28;20233;-83
2023/04/27 01:11:57;;;;;;;6.57;3.47;;;4.40;99.90;;;;;;10417470;28;20206;-83
2023/04/27 01:17:20;;;;;;;8.27;3.30;;;4.40;99.90;;;;;;10431438;28;20225;-82
2023/04/27 01:22:42;;;;;;;6.43;2.53;;;4.40;99.90;;;;;;10460259;28;20196;-83
2023/04/27 01:28:03;;;;;;;9.30;2.53;;;4.50;99.90;;;;;;10432781;28;20224;-83
2023/04/27 01:33:25;;;;;;;9.50;3.07;;;4.50;99.90;;;;;;10441828;28;20200;-83
2023/04/27 01:38:46;;;;;;;11.97;3.90;;;4.50;99.90;;;;;;10441708;28;20235;-83
2023/04/27 01:44:07;;;;;;;8.57;3.43;;;4.40;99.90;;;;;;10415896;28;20208;-83
2023/04/27 01:49:28;;;;;;;9.30;3.13;;;4.40;99.90;;;;;;10428112;28;20230;-82
2023/04/27 01:54:50;;;;;;;5.63;2.40;;;4.40;99.90;;;;;;10441927;28;20221;-82
2023/04/27 02:00:12;;;;;;;8.60;2.93;;;4.40;99.90;;;;;;10430148;28;20198;-83
2023/04/27 02:05:42;;;;;;;15.37;4.37;;;4.40;99.90;;;;;;10436569;28;20554;-82
2023/04/27 02:11:05;;;;;;;13.00;4.30;;;4.40;99.90;;;;;;10434432;28;20276;-83
2023/04/27 02:16:27;;;;;;;12.27;5.20;;;4.30;99.90;;;;;;10437416;28;20504;-82
2023/04/27 02:21:48;;;;;;;11.40;4.80;;;4.30;99.90;;;;;;10440131;28;20193;-82
2023/04/27 02:27:10;;;;;;;10.23;3.10;;;4.30;99.90;;;;;;10430215;28;20232;-82
2023/04/27 02:32:33;;;;;;;3.53;2.00;;;4.30;99.90;;;;;;10438943;28;20502;-82
2023/04/27 02:37:54;;;;;;;5.47;2.77;;;4.30;99.90;;;;;;10453274;28;20272;-81
2023/04/27 02:43:17;;;;;;;10.47;2.47;;;4.20;99.90;;;;;;10455140;28;20207;-82
2023/04/27 02:48:38;;;;;;;9.30;2.77;;;4.20;99.90;;;;;;10411364;28;20224;-83
2023/04/27 02:54:00;;;;;;;5.33;3.10;;;4.30;99.90;;;;;;10424676;28;20198;-82
2023/04/27 02:59:21;;;;;;;7.53;3.23;;;4.20;99.90;;;;;;10439168;28;20201;-84
2023/04/27 03:04:42;;;;;;;7.97;4.33;;;4.20;99.90;;;;;;10425501;28;20196;-82
2023/04/27 03:10:04;;;;;;;11.20;5.37;;;4.10;99.90;;;;;;10410615;28;20410;-84
2023/04/27 03:15:25;;;;;;;7.47;3.67;;;4.20;99.90;;;;;;10396864;28;20381;-82
2023/04/27 03:20:47;;;;;;;9.23;3.97;;;4.20;99.90;;;;;;10431299;28;20192;-83
2023/04/27 03:26:10;;;;;;;6.50;2.37;;;4.20;99.90;;;;;;10437220;28;20251;-84
2023/04/27 03:31:31;;;;;;;7.03;2.27;;;4.30;99.90;;;;;;10427861;28;20259;-83
2023/04/27 03:36:53;;;;;;;6.17;1.80;;;4.20;99.90;;;;;;10436991;28;20258;-83
2023/04/27 03:42:14;;;;;;;3.73;2.20;;;4.20;99.90;;;;;;10438030;28;20373;-83
2023/04/27 03:47:35;;;;;;;6.50;2.20;;;4.30;99.90;;;;;;10410088;28;20298;-83
2023/04/27 03:52:56;;;;;;;7.73;2.43;;;4.20;99.90;;;;;;10400519;28;20200;-83
2023/04/27 03:58:18;;;;;;;9.23;2.57;;;4.20;99.90;;;;;;10427356;28;20477;-83
2023/04/27 04:03:59;;;;;;;4.17;2.20;;;4.20;99.90;;;;;;10396012;28;20254;-81
2023/04/27 04:09:20;;;;;;;7.63;2.73;;;4.10;99.90;;;;;;10394068;28;20240;-84
2023/04/27 04:14:43;;;;;;;7.20;2.10;;;4.10;99.90;;;;;;10429142;28;20204;-83
2023/04/27 04:20:09;;;;;;;5.60;2.40;;;4.20;99.90;;;;;;10449569;28;20200;-84
2023/04/27 04:25:31;;;;;;;7.33;3.40;;;4.20;99.90;;;;;;10439283;28;20255;-83
2023/04/27 04:30:52;;;;;;;15.70;5.33;;;4.20;99.90;;;;;;10412699;28;20607;-83
2023/04/27 04:36:14;;;;;;;5.83;3.27;;;4.30;99.90;;;;;;10412803;28;20268;-82
2023/04/27 04:41:35;;;;;;;9.10;3.20;;;4.50;99.90;;;;;;10426657;28;20208;-84
2023/04/27 04:46:57;;;;;;;6.37;2.60;;;4.70;99.90;;;;;;10421119;28;20213;-85
2023/04/27 04:52:20;;;;;;;5.67;2.40;;;4.80;99.90;;;;;;10421043;28;20228;-84
2023/04/27 04:57:42;;;;;;;9.23;3.10;;;4.80;99.90;;;;;;10453110;28;20198;-83
2023/04/27 05:03:03;;;;;;;7.97;3.27;;;5.00;99.90;;;;;;10442385;28;20239;-83
2023/04/27 05:08:24;;;;;;;8.57;2.93;;;5.10;99.90;;;;;;10401445;28;20236;-84
2023/04/27 05:13:46;;;;;;;6.53;2.70;;;5.00;99.90;;;;;;10440725;28;20196;-82
2023/04/27 05:19:08;;;;;;;6.60;3.00;;;5.00;99.90;;;;;;10455561;28;20536;-82
2023/04/27 05:24:29;;;;;;;7.17;2.77;;;4.80;99.90;;;;;;10441091;28;20196;-84
2023/04/27 05:29:51;;;;;;;4.73;2.17;;;4.90;99.90;;;;;;10446027;28;20269;-83
2023/04/27 05:35:12;;;;;;;5.87;2.10;;;5.00;99.90;;;;;;10455028;28;20204;-83
2023/04/27 05:40:33;;;;;;;3.17;1.90;;;5.20;99.90;;;;;;10450050;28;20200;-84
2023/04/27 05:45:55;;;;;;;5.00;2.13;;;5.30;99.90;;;;;;10412632;28;20204;-82
2023/04/27 05:51:17;;;;;;;3.03;1.97;;;5.40;99.90;;;;;;10458981;28;20311;-84
2023/04/27 05:56:38;;;;;;;3.73;2.10;;;5.60;99.90;;;;;;10428957;28;20271;-84
2023/04/27 06:02:00;;;;;;;7.83;2.00;;;5.50;99.90;;;;;;10413218;28;20496;-84
2023/04/27 06:07:21;;;;;;;5.47;1.90;;;5.60;99.90;;;;;;10417677;28;20242;-84
2023/04/27 06:12:43;;;;;;;3.23;2.03;;;6.10;99.90;;;;;;10436256;28;20390;-85
2023/04/27 06:18:05;;;;;;;3.10;2.00;;;6.80;99.90;;;;;;10481264;28;20212;-83
2023/04/27 06:23:30;;;;;;;6.50;2.47;;;7.50;99.90;;;;;;10398063;28;20228;-84
2023/04/27 06:28:51;;;;;;;3.77;2.30;;;8.20;98.20;;;;;;10441599;28;20228;-85
2023/04/27 06:34:12;;;;;;;5.43;2.23;;;9.00;92.70;;;;;;10467095;28;20191;-85
2023/04/27 06:39:34;;;;;;;8.23;2.57;;;9.20;92.30;;;;;;10424462;28;20209;-84
2023/04/27 06:44:55;;;;;;;6.57;2.43;;;9.60;76.80;;;;;;10452696;28;20202;-83
2023/04/27 06:50:17;;;;;;;4.70;2.03;;;9.40;70.00;;;;;;10434889;28;20230;-82
2023/04/27 06:55:38;;;;;;;10.80;2.47;;;9.40;75.40;;;;;;10430310;28;20204;-83
2023/04/27 07:01:02;;;;;;;3.53;2.37;;;8.90;77.40;;;;;;10404073;28;20214;-84
2023/04/27 07:06:24;;;;;;;3.77;2.10;;;9.10;73.80;;;;;;10404521;28;20223;-82
2023/04/27 07:11:46;;;;;;;5.73;1.90;;;9.80;62.30;;;;;;10453416;28;20275;-82
2023/04/27 07:17:07;;;;;;;16.10;3.10;;;9.40;47.90;;;;;;10451146;28;20189;-83
2023/04/27 07:22:29;;;;;;;5.47;3.00;;;8.50;82.60;;;;;;10420472;28;20194;-84
2023/04/27 07:27:51;;;;;;;6.40;3.30;;;9.10;73.40;;;;;;10412649;28;20257;-82
2023/04/27 07:33:13;;;;;;;3.43;1.87;;;9.40;45.80;;;;;;10437233;28;20205;-84
2023/04/27 07:38:34;;;;;;;9.57;2.30;;;9.20;40.00;;;;;;10445966;28;20213;-83
2023/04/27 07:43:59;;;;;;;12.57;2.07;;;9.00;41.70;;;;;;10443394;28;20213;-82
2023/04/27 07:49:20;;;;;;;7.93;2.50;;;8.60;1.00;;;;;;10417254;28;20234;-84
2023/04/27 07:54:42;;;;;;;5.33;2.30;;;8.90;1.00;;;;;;10403484;28;20271;-85
2023/04/27 08:00:07;;;;;;;4.97;2.07;;;9.70;1.00;;;;;;10428042;28;20197;-83
2023/04/27 08:05:32;;;;;;;6.47;2.03;;;11.00;1.00;;;;;;10427014;28;20210;-85
2023/04/27 08:10:53;;;;;;;6.70;2.00;;;11.10;1.00;;;;;;10413184;28;20546;-82
2023/04/27 08:16:15;;;;;;;4.97;1.87;;;10.00;1.00;;;;;;10443908;28;20190;-81
2023/04/27 08:21:37;;;;;;;16.37;2.63;;;10.40;1.00;;;;;;10425942;28;20293;-84
2023/04/27 08:26:58;;;;;;;11.43;2.50;;;11.90;1.00;;;;;;10431273;28;20266;-82
2023/04/27 08:32:19;;;;;;;4.63;1.70;;;12.00;1.00;;;;;;10466089;28;20250;-83
2023/04/27 08:37:41;;;;;;;5.17;1.70;;;10.70;1.00;;;;;;10393894;28;20273;-87
2023/04/27 08:43:07;;;;;;;10.17;2.10;;;10.30;1.00;;;;;;10376441;28;20198;-86
2023/04/27 08:48:28;;;;;;;4.30;1.80;;;10.40;1.00;;;;;;10396805;28;20230;-84
2023/04/27 08:53:52;;;;;;;5.17;1.30;;;9.80;1.00;;;;;;10429613;28;20366;-83
2023/04/27 08:59:14;;;;;;;3.80;1.50;;;9.90;1.00;;;;;;10415510;28;20516;-84
2023/04/27 09:04:40;;;;;;;2.70;1.17;;;11.50;1.00;;;;;;10408867;28;20407;-83
2023/04/27 09:10:03;;;;;;;3.20;1.47;;;12.70;1.00;;;;;;10428764;28;20322;-84
2023/04/27 09:15:25;;;;;;;6.30;1.07;;;12.80;1.00;;;;;;10442511;28;20216;-83
2023/04/27 09:20:48;;;;;;;6.27;1.37;;;12.30;1.00;;;;;;10455854;28;20519;-81
2023/04/27 09:26:20;;;;;;;3.70;0.90;;;10.70;1.00;;;;;;10423034;28;20193;-83
2023/04/27 09:31:41;;;;;;;4.67;1.23;;;10.00;1.00;;;;;;10448454;28;20256;-84
2023/04/27 09:37:03;;;;;;;3.27;1.20;;;9.40;1.00;;;;;;10414675;28;20530;-84
2023/04/27 09:42:25;;;;;;;14.47;6.60;;;10.00;1.00;;;;;;10434312;28;20278;-84
2023/04/27 09:47:47;;;;;;;9.67;1.67;;;11.30;1.00;;;;;;10435369;28;20239;-83
2023/04/27 09:53:11;;;;;;;5.37;1.80;;;11.50;1.00;;;;;;10460135;28;20284;-84
2023/04/27 09:59:05;;;;;;;5.83;1.40;;;11.50;1.00;;;;;;10433652;28;20211;-82
2023/04/27 10:05:28;;;;;;;7.53;1.50;;;11.60;1.00;;;;;;10436487;28;20224;-82
2023/04/27 10:10:52;;;;;;;3.63;1.50;;;12.60;1.00;;;;;;10342273;28;20416;-86
2023/04/27 10:16:17;;;;;;;4.88;1.42;;;13.70;1.00;;;;;;10322414;28;20214;-85
2023/04/27 10:22:06;;;;;;;6.90;1.33;;;14.60;1.00;;;;;;10350630;28;20524;-87
2023/04/27 10:27:38;;;;;;;4.88;1.10;;;14.60;1.00;;;;;;10345248;28;20302;-83
2023/04/27 10:33:05;;;;;;;1.55;0.93;;;14.90;1.00;;;;;;10358583;28;20230;-82
2023/04/27 10:38:31;;;;;;;7.85;1.80;;;15.50;1.00;;;;;;10353079;28;20207;-84
2023/04/27 10:43:53;;;;;;;8.45;1.85;;;14.80;1.00;;;;;;10372453;28;20230;-84
2023/04/27 10:49:15;;;;;;;7.07;1.93;;;13.70;99.90;;;;;;10433616;28;20230;-84
2023/04/27 10:54:38;;;;;;;1.97;1.00;;;11.70;99.90;;;;;;10432363;28;20400;-84
2023/04/27 10:59:59;;;;;;;2.60;1.40;;;9.80;1.00;;;;;;10431225;28;20229;-85
2023/04/27 11:05:28;;;;;;;8.53;1.37;;;8.60;1.00;;;;;;10479116;28;20446;-85
2023/04/27 11:10:50;;;;;;;4.47;1.80;;;8.20;83.50;;;;;;10432373;28;20317;-83
2023/04/27 11:16:12;;;;;;;2.50;1.30;;;8.20;1.00;;;;;;10431436;28;20217;-85
2023/04/27 11:21:34;;;;;;;3.90;2.00;;;8.40;1.00;;;;;;10441641;28;20418;-84
2023/04/27 11:26:55;;;;;;;4.53;2.27;;;8.90;1.00;;;;;;10431768;28;20234;-85
2023/04/27 11:32:21;;;;;;;5.80;3.13;;;9.30;1.00;;;;;;10419424;28;20234;-85
2023/04/27 11:37:43;;;;;;;3.97;1.50;;;9.60;1.00;;;;;;10421467;28;20198;-85
2023/04/27 11:43:05;;;;;;;5.20;1.60;;;9.60;1.00;;;;;;10465198;28;20218;-83
2023/04/27 11:48:26;;;;;;;8.10;4.50;;;10.10;1.00;;;;;;10468864;28;20255;-85
2023/04/27 11:53:50;;;;;;;6.17;2.10;;;10.70;26.10;;;;;;10478622;28;20468;-84
2023/04/27 11:59:26;;;;;;;3.93;1.73;;;11.60;23.10;;;;;;10458119;28;20206;-84
2023/04/27 12:04:50;;;;;;;2.90;1.17;;;12.30;17.70;;;;;;10439625;28;20562;-83
2023/04/27 12:10:12;;;;;;;5.83;1.00;;;12.50;14.60;;;;;;10450511;28;20474;-82
2023/04/27 12:15:33;;;;;;;2.30;1.23;;;12.80;13.60;;;;;;10432552;28;20199;-81
2023/04/27 12:20:54;;;;;;;3.37;1.20;;;13.10;12.80;;;;;;10391254;28;20230;-83
2023/04/27 12:26:16;;;;;;;2.73;1.27;;;12.80;11.80;;;;;;10431053;28;20195;-83
2023/04/27 12:31:37;;;;;;;1.53;1.00;;;12.10;10.70;;;;;;10429570;28;20424;-87
2023/04/27 12:36:59;;;;;;;5.88;2.65;;;12.80;10.70;;;;;;10432852;28;20226;-83
2023/04/27 12:42:23;;;;;;;6.13;1.70;;;12.40;10.10;;;;;;10416033;28;20207;-86
2023/04/27 12:47:45;;;;;;;4.17;2.37;;;11.40;13.90;;;;;;10439617;28;20230;-85
2023/04/27 12:53:14;;;;;;;8.50;2.57;;;11.00;16.60;;;;;;10473687;28;20204;-87
2023/04/27 12:58:35;;;;;;;4.33;1.80;;;10.90;17.20;;;;;;10454006;28;20264;-87
2023/04/27 13:04:02;;;;;;;8.23;1.93;;;11.30;17.50;;;;;;10479701;28;20207;-82
2023/04/27 13:09:23;;;;;;;3.07;1.53;;;11.90;15.50;;;;;;10430004;28;20315;-85
2023/04/27 13:14:45;;;;;;;8.43;1.77;;;11.50;13.40;;;;;;10442380;28;20231;-89
2023/04/27 13:20:07;;;;;;;3.90;1.37;;;11.30;14.50;;;;;;10396764;28;20279;-84
2023/04/27 13:25:29;;;;;;;5.27;1.10;;;11.60;12.90;;;;;;10449589;28;20290;-89
2023/04/27 13:30:51;;;;;;;7.60;1.53;;;11.90;11.10;;;;;;10451493;28;20219;-83
2023/04/27 13:36:13;;;;;;;2.23;1.60;;;11.80;99.90;;;;;;10448279;28;20216;-84
2023/04/27 13:41:34;;;;;;;4.77;1.40;;;11.50;99.90;;;;;;10436795;28;20206;-85
2023/04/27 13:46:57;;;;;;;1.50;1.10;;;11.60;99.90;;;;;;10446608;28;20206;-88
2023/04/27 13:52:19;;;;;;;28.17;5.03;;;11.80;99.90;;;;;;10427130;28;20240;-85
2023/04/27 13:57:43;;;;;;;7.03;1.20;;;12.00;99.90;;;;;;10412158;28;20287;-89
2023/04/27 14:03:04;;;;;;;7.73;1.47;;;11.80;99.90;;;;;;10424605;28;20507;-82
2023/04/27 14:08:25;;;;;;;3.60;1.20;;;12.10;99.90;;;;;;10392451;28;20252;-84
2023/04/27 14:13:47;;;;;;;5.37;2.40;;;11.70;99.90;;;;;;10430166;28;20227;-84
2023/04/27 14:19:09;;;;;;;4.73;2.13;;;11.60;99.90;;;;;;10448312;28;20198;-85
2023/04/27 14:24:30;;;;;;;41.27;2.27;;;11.60;99.90;;;;;;10453569;28;20222;-85
2023/04/27 14:29:51;;;;;;;5.50;1.30;;;11.60;99.90;;;;;;10418832;28;20234;-84
2023/04/27 14:35:13;;;;;;;3.10;1.27;;;11.40;99.90;;;;;;10449536;28;20209;-83
2023/04/27 14:40:35;;;;;;;5.27;1.00;;;11.30;99.90;;;;;;10451562;28;20269;-83
2023/04/27 14:45:56;;;;;;;6.67;1.53;;;11.30;99.90;;;;;;10429055;28;20211;-83
2023/04/27 14:51:22;;;;;;;3.77;1.17;;;11.40;99.90;;;;;;10474923;28;20226;-85
2023/04/27 14:56:45;;;;;;;15.90;1.63;;;11.30;99.90;;;;;;10446666;28;20202;-84
2023/04/27 15:02:06;;;;;;;2.57;1.17;;;11.40;99.90;;;;;;10422359;28;20406;-83
2023/04/27 15:07:28;;;;;;;7.87;1.37;;;11.20;99.90;;;;;;10434095;28;20281;-91
2023/04/27 15:12:49;;;;;;;2.10;1.40;;;10.90;99.90;;;;;;10429277;28;20284;-82
2023/04/27 15:18:11;;;;;;;3.77;1.10;;;11.10;99.90;;;;;;10433480;28;20241;-82
2023/04/27 15:23:35;;;;;;;0.70;0.70;;;11.10;99.90;;;;;;10415360;28;20519;-83
2023/04/27 15:28:58;;;;;;;28.93;2.33;;;11.10;99.90;;;;;;10419226;28;20252;-83
2023/04/27 15:34:21;;;;;;;2.87;1.00;;;11.00;99.90;;;;;;10420278;28;20201;-83
2023/04/27 15:39:42;;;;;;;3.83;1.03;;;10.90;99.90;;;;;;10423952;28;20200;-83
2023/04/27 15:45:04;;;;;;;2.33;1.20;;;10.80;99.90;;;;;;10429481;28;20218;-83
2023/04/27 15:50:26;;;;;;;1.73;0.80;;;10.60;99.90;;;;;;10439656;28;20556;-83
2023/04/27 15:55:47;;;;;;;7.07;1.20;;;10.50;99.90;;;;;;10449843;28;20206;-83
2023/04/27 16:01:08;;;;;;;2.83;1.07;;;10.50;99.90;;;;;;10436410;28;20210;-83
2023/04/27 16:06:34;;;;;;;4.80;1.47;;;10.50;99.90;;;;;;10435984;28;20194;-82
2023/04/27 16:11:55;;;;;;;2.10;0.83;;;10.40;99.90;;;;;;10454043;28;20226;-83
2023/04/27 16:17:17;;;;;;;9.40;1.50;;;10.40;99.90;;;;;;10394687;28;20212;-83
2023/04/27 16:22:39;;;;;;;10.27;1.00;;;10.30;99.90;;;;;;10424942;28;20384;-83
2023/04/27 16:28:00;;;;;;;2.67;1.00;;;10.10;99.90;;;;;;10418706;28;20496;-82
2023/04/27 16:33:22;;;;;;;3.50;1.73;;;9.90;99.90;;;;;;10427543;28;20199;-83
2023/04/27 16:38:43;;;;;;;6.27;2.83;;;9.90;99.90;;;;;;10448844;28;20202;-83
2023/04/27 16:44:04;;;;;;;4.47;2.17;;;9.90;99.90;;;;;;10409966;28;20211;-83
2023/04/27 16:49:26;;;;;;;7.47;3.50;;;9.80;99.90;;;;;;10452272;28;20230;-82
2023/04/27 16:54:47;;;;;;;4.33;2.40;;;9.80;99.90;;;;;;10440737;28;20204;-83
2023/04/27 17:00:09;;;;;;;5.33;3.00;;;9.70;99.90;;;;;;10429291;28;20385;-83
2023/04/27 17:05:32;;;;;;;5.57;2.33;;;9.50;99.90;;;;;;10428946;28;20194;-82
2023/04/27 17:10:53;;;;;;;7.20;2.63;;;9.40;99.90;;;;;;10455942;28;20270;-83
2023/04/27 17:16:16;;;;;;;2.67;1.00;;;9.30;99.90;;;;;;10428782;28;20198;-83
2023/04/27 17:21:37;;;;;;;8.63;1.77;;;9.10;99.90;;;;;;10419462;28;20223;-83
2023/04/27 17:26:58;;;;;;;3.67;1.67;;;9.00;99.90;;;;;;10428367;28;20193;-83
2023/04/27 17:32:20;;;;;;;5.87;1.80;;;8.90;99.90;;;;;;10427703;28;20225;-83
2023/04/27 17:37:42;;;;;;;4.90;1.97;;;8.70;99.90;;;;;;10423449;28;20229;-82
2023/04/27 17:43:03;;;;;;;9.63;1.73;;;8.70;99.90;;;;;;10440960;28;20275;-82
2023/04/27 17:48:24;;;;;;;3.73;1.17;;;8.60;99.90;;;;;;10427198;28;20219;-82
2023/04/27 17:53:46;;;;;;;6.67;1.27;;;8.50;99.90;;;;;;10426765;28;20238;-83
2023/04/27 17:59:07;;;;;;;4.90;1.53;;;8.50;99.90;;;;;;10440785;28;20243;-83
2023/04/27 18:04:29;;;;;;;6.67;1.67;;;8.50;99.90;;;;;;10445066;28;20201;-82
2023/04/27 18:09:50;;;;;;;2.60;1.40;;;8.50;99.90;;;;;;10426668;28;20235;-83
2023/04/27 18:15:11;;;;;;;3.90;1.60;;;8.40;99.90;;;;;;10426395;28;20425;-82
2023/04/27 18:20:33;;;;;;;4.03;1.23;;;8.30;99.90;;;;;;10413499;28;20235;-82
2023/04/27 18:25:58;;;;;;;5.40;1.83;;;8.30;99.90;;;;;;10452334;28;20205;-82
2023/04/27 18:31:20;;;;;;;28.70;18.10;;;8.20;99.90;;;;;;10425631;28;20231;-82
2023/04/27 18:36:41;;;;;;;14.57;9.17;;;8.20;99.90;;;;;;10431591;28;20196;-82
2023/04/27 18:42:03;;;;;;;13.20;8.70;;;8.10;99.90;;;;;;10425156;28;20383;-83
2023/04/27 18:47:25;;;;;;;10.90;7.30;;;8.10;99.90;;;;;;10424822;28;20198;-82
2023/04/27 18:52:46;;;;;;;9.53;5.97;;;8.00;99.90;;;;;;10418341;28;20229;-82
2023/04/27 18:58:07;;;;;;;7.27;3.90;;;8.00;99.90;;;;;;10461110;28;20208;-82
2023/04/27 19:03:28;;;;;;;8.50;3.30;;;7.90;99.90;;;;;;10397400;28;20231;-81
2023/04/27 19:08:50;;;;;;;7.70;3.70;;;7.90;99.90;;;;;;10415818;28;20250;-82
2023/04/27 19:14:13;;;;;;;7.80;5.03;;;7.80;99.90;;;;;;10431780;28;20194;-82
2023/04/27 19:19:34;;;;;;;17.47;10.93;;;7.70;99.90;;;;;;10425748;28;20548;-83
2023/04/27 19:24:55;;;;;;;26.03;18.50;;;7.70;99.90;;;;;;10446305;28;20207;-82
2023/04/27 19:30:17;;;;;;;12.40;9.53;;;7.60;99.90;;;;;;10430784;28;20237;-82
2023/04/27 19:35:39;;;;;;;9.57;5.70;;;7.60;99.90;;;;;;10398345;28;20272;-82
2023/04/27 19:41:00;;;;;;;11.30;5.87;;;7.50;99.90;;;;;;10436799;28;20265;-82
2023/04/27 19:46:21;;;;;;;12.97;6.73;;;7.50;99.90;;;;;;10405527;28;20237;-82
2023/04/27 19:51:42;;;;;;;13.77;6.17;;;7.40;1.00;;;;;;10436206;28;20229;-82
2023/04/27 19:57:04;;;;;;;13.10;6.73;;;7.30;1.00;;;;;;10436641;28;20190;-83
2023/04/27 20:02:26;;;;;;;15.67;6.27;;;7.30;1.00;;;;;;10450365;28;20210;-83
2023/04/27 20:07:48;;;;;;;16.53;7.27;;;7.10;1.00;;;;;;10421614;28;20532;-83
2023/04/27 20:13:10;;;;;;;14.60;8.03;;;7.00;1.00;;;;;;10431611;28;20259;-83
2023/04/27 20:18:31;;;;;;;28.23;10.67;;;7.00;1.00;;;;;;10427966;28;20199;-83
2023/04/27 20:23:53;;;;;;;47.57;17.63;;;7.00;1.00;;;;;;10417040;28;20212;-84
2023/04/27 20:29:14;;;;;;;55.57;19.97;;;6.90;1.00;;;;;;10415858;28;20284;-83
2023/04/27 20:34:36;;;;;;;72.77;20.80;;;6.80;1.00;;;;;;10408596;28;20230;-83
2023/04/27 20:39:58;;;;;;;55.50;17.47;;;6.70;1.00;;;;;;10460404;28;20510;-83
2023/04/27 20:45:19;;;;;;;47.97;15.33;;;6.60;1.00;;;;;;10422522;28;20208;-83
2023/04/27 20:50:41;;;;;;;66.60;19.13;;;6.50;1.00;;;;;;10419103;28;20224;-83
2023/04/27 20:56:03;;;;;;;75.30;20.53;;;6.40;1.00;;;;;;10429477;28;20218;-83
2023/04/27 21:01:25;;;;;;;45.73;14.80;;;6.30;1.00;;;;;;10429138;28;20458;-83
2023/04/27 21:06:46;;;;;;;25.87;10.47;;;6.20;1.00;;;;;;10405963;28;20201;-83
2023/04/27 21:12:08;;;;;;;28.87;9.93;;;6.00;1.00;;;;;;10449647;28;20275;-83
2023/04/27 21:17:29;;;;;;;24.07;9.47;;;6.00;1.00;;;;;;10421940;28;20493;-83
2023/04/27 21:22:50;;;;;;;31.53;14.67;;;5.90;1.00;;;;;;10430901;28;20208;-83
2023/04/27 21:28:12;;;;;;;44.53;17.47;;;5.90;1.00;;;;;;10475285;28;20197;-83
2023/04/27 21:33:33;;;;;;;45.60;18.00;;;5.80;1.00;;;;;;10428077;28;20242;-83
2023/04/27 21:38:54;;;;;;;41.07;13.47;;;5.70;1.00;;;;;;10412678;28;20203;-83
2023/04/27 21:44:16;;;;;;;33.40;11.10;;;5.60;1.00;;;;;;10414421;28;20210;-83
2023/04/27 21:49:37;;;;;;;42.17;14.13;;;5.60;1.00;;;;;;10421838;28;20238;-83
2023/04/27 21:54:59;;;;;;;40.77;13.07;;;5.60;1.00;;;;;;10460532;28;20197;-83
2023/04/27 22:00:20;;;;;;;25.57;8.40;;;5.50;29.80;;;;;;10455052;28;20202;-83
2023/04/27 22:05:42;;;;;;;22.00;8.57;;;5.40;46.50;;;;;;10417270;28;20206;-83
2023/04/27 22:11:03;;;;;;;17.97;6.80;;;5.40;99.90;;;;;;10451102;28;20245;-84
2023/04/27 22:16:28;;;;;;;15.83;7.03;;;5.40;99.90;;;;;;10442767;28;20202;-83
2023/04/27 22:21:50;;;;;;;27.27;8.07;;;5.30;99.90;;;;;;10427714;28;20498;-83
2023/04/27 22:27:13;;;;;;;19.03;7.30;;;5.30;1.00;;;;;;10446365;28;20191;-83
2023/04/27 22:32:35;;;;;;;22.80;8.17;;;5.30;1.00;;;;;;10452646;28;20227;-83
2023/04/27 22:37:58;;;;;;;11.97;4.93;;;5.30;1.00;;;;;;10450782;28;20218;-83
2023/04/27 22:43:19;;;;;;;12.63;4.70;;;5.20;99.90;;;;;;10441994;28;20187;-82
2023/04/27 22:48:42;;;;;;;14.03;5.37;;;;;;;;;;10450982;28;20209;-82
2023/04/27 22:54:04;;;;;;;9.87;5.17;;;;;;;;;;10452452;28;20190;-83
2023/04/27 22:59:26;;;;;;;12.83;5.43;;;;;;;;;;10440459;28;20221;-82
2023/04/27 23:04:47;;;;;;;11.47;5.20;;;;;;;;;;10422037;28;20281;-82
2023/04/27 23:10:10;;;;;;;11.03;5.37;;;;;;;;;;10441741;28;20243;-82
2023/04/27 23:15:31;;;;;;;12.43;5.57;;;;;;;;;;10440041;28;20205;-82
2023/04/27 23:20:53;;;;;;;14.97;6.87;;;;;;;;;;10430270;28;20197;-83
2023/04/27 23:26:16;;;;;;;13.43;6.50;;;;;;;;;;10425303;28;20563;-82
2023/04/27 23:31:37;;;;;;;21.93;7.50;;;;;;;;;;10411453;28;20305;-82
2023/04/27 23:36:59;;;;;;;23.67;7.73;;;;;;;;;;10437285;28;20372;-82
2023/04/27 23:42:21;;;;;;;13.60;5.70;;;;;;;;;;10455982;28;20224;-82
2023/04/27 23:47:42;;;;;;;17.10;6.93;;;;;;;;;;10454446;28;20225;-82
2023/04/27 23:53:04;;;;;;;19.23;6.47;;;;;;;;;;10415511;28;20262;-82
2023/04/27 23:58:26;;;;;;;13.83;4.80;;;;;;;;;;10395492;28;20492;-83
